Aviation Digital Data Service (ADDS)

Output produced by METARs form (2339 UTC 23 May 2022)
found at http://www.aviationweather.gov/metar/data/
 
KEAR 232333Z 2400/2424 VRB05KT P6SM VCSH OVC050 
     FM240100 VRB05KT P6SM OVC050 
     FM241700 07014G20KT P6SM -SHRA SCT015 OVC030 
     FM241900 06015G20KT 5SM SHRA BR SCT010 OVC020
       
KEAT 232334Z 2400/2424 29018G25KT P6SM FEW110 
     FM240600 30013KT P6SM FEW250 
     FM241100 31008KT P6SM BKN250 
     FM241900 13005KT P6SM SCT150 BKN200
       
KEAU 232320Z 2400/2424 13004KT P6SM BKN250 
     FM241500 15005KT P6SM SCT250 
     FM241900 12006KT P6SM FEW070 SCT250 
     FM242200 11007KT P6SM BKN250
       
KECG 232320Z 2400/2424 06009KT P6SM VCSH BKN090 
     FM241000 08009KT P6SM VCSH OVC025 
     FM241200 09009KT P6SM OVC012 
     FM241500 10012KT 4SM SHRA OVC010 
     FM241800 10011KT 4SM SHRA OVC005
       
TAF KEDW 232100Z 2321/2503 VRB06KT 9999 SKC QNH2981INS 
     BECMG 2400/2401 29012KT 9999 SKC QNH2982INS 
     BECMG 2404/2405 VRB06KT 9999 SKC QNH2986INS 
     BECMG 2416/2417 02012KT 9999 SKC QNH2981INS TX33/2322Z TN14/2413Z
       
KEED 232320Z 2400/2424 35007KT P6SM FEW250 
     FM240500 29006KT P6SM FEW250 
     FM241600 35011KT P6SM SKC
       
KEET 232301Z 2323/2418 28007KT P6SM VCSH BKN050 
     TEMPO 2323/2324 6SM SHRA BKN030 
     FM240100 03006KT P6SM OVC100 
     FM240700 00000KT 4SM BR OVC007 
     FM241300 VRB03KT P6SM OVC010 
     FM241600 15005KT P6SM BKN030
       
TAF KEFD 232000Z 2320/2502 06009KT 9999 SCT026 QNH2989INS 
     BECMG 2406/2407 VRB06KT 9000 BR OVC015 QNH2979INS 
     BECMG 2416/2417 16012KT 9000 -SHRA BKN024 510023 QNH2981INS 
     TEMPO 2417/2420 20030G40KT 9000 -TSRA BR BKN015CB 
     BECMG 2419/2420 21020G30KT 4800 SHRA BR BKN025 510023 QNH2979INS 
     TEMPO 2423/2424 20020G30KT 9000 -TSRA BKN015CB 
     BECMG 2423/2424 17020G30KT 9999 NSW BKN025 510013 QNH2966INS 
     BECMG 2501/2502 16009KT 9000 -SHRA OVC009 510013 QNH2971INS TX28/2323Z
TN23/2411Z
       
KEFK 232321Z 2400/2424 VRB03KT P6SM SCT200
       
KEGE 231740Z 2318/2418 26008G15KT P6SM FEW070 SCT200 
     FM232300 34008KT P6SM SCT070 BKN150 
     FM240300 04005KT P6SM SCT070 BKN120 
     FM241200 VRB03KT P6SM SCT045 BKN060
       
TAF AMD KEGI 231850Z 2318/2423 25009KT 9999 -SHRA FEW030 OVC120 QNH2994INS 
     TEMPO 2318/2320 25020G30KT 4800 -TSRA BKN012 BKN035CB 
     BECMG 2405/2406 17006KT 8000 -SHRA VCTS SCT005 BKN025CB QNH2990INS 
     BECMG 2410/2411 13009KT 9999 NSW SCT008 OVC025 QNH2992INS 
     BECMG 2413/2414 14009KT 9999 SCT010 BKN025 QNH2993INS 
     BECMG 2415/2416 16010KT 9999 VCSH BKN035 QNH2995INS 
     BECMG 2419/2420 17010G15KT 9000 -SHRA VCTS SCT015 BKN020CB BKN120
QNH2997INS TX27/2321Z TN21/2412Z
       
KEKN 232110Z 2321/2418 02005KT 5SM -RA BR OVC025 
     TEMPO 2321/2401 1SM -RA BR OVC015 
     FM240100 11004KT 6SM -RA BR OVC025 
     FM240400 00000KT 5SM BR OVC015 
     FM240900 00000KT 3SM BR OVC012 
     FM241500 VRB03KT P6SM BKN015
       
KZZV 232323Z 2400/2424 05004KT P6SM BKN070 
     FM241300 03005KT P6SM OVC040
       
KELP 232328Z 2400/2424 25013G23KT P6SM FEW250 
     FM240200 27020G30KT P6SM SKC 
     FM240900 29010G20KT P6SM FEW250 
     FM241700 26020G30KT P6SM FEW250
       
KELY 232328Z 2400/2424 35007G17KT P6SM SCT250 
     FM240500 18009KT P6SM FEW250 
     FM241600 35010G20KT P6SM FEW200
       
KEKO 232328Z 2400/2424 30012KT P6SM SCT100 SCT200 
     FM240300 VRB03KT P6SM FEW100 
     FM241800 28008G18KT P6SM SCT250
       
TAF AMD KEND 232207Z 2322/2424 11010KT 9999 BKN007 QNH3007INS 
     TEMPO 2322/2324 9000 -TSRA OVC006CB 
     BECMG 2323/2324 12012KT 8000 -SHRA BR OVC015 QNH3000INS 
     TEMPO 2412/2415 13015G25KT 8000 -TSRA OVC015CB 
     BECMG 2414/2415 13015KT 8000 -RA BR OVC015 QNH2970INS 
     TEMPO 2418/2424 14020G30KT 6000 TSRA OVC008CB TX18/2418Z TN12/2322Z
       
KENV 232320Z 2400/2424 12006KT P6SM SCT150 
     FM240300 VRB05KT P6SM SCT120 
     FM241500 12008KT P6SM FEW250
       
KENW 231727Z 2318/2418 08009KT P6SM SCT250 
     FM232300 06008KT P6SM BKN250 
     FM241200 08004KT P6SM BKN090 
     FM241700 09010KT P6SM SCT130
       
KERI 232320Z 2400/2424 03007KT P6SM BKN250 
     FM241900 04011KT P6SM BKN035
       
KEUG 231720Z 2318/2418 36003KT P6SM BKN100 
     FM232100 01004KT P6SM OVC250 
     FM241500 15002KT P6SM FEW025 BKN050
       
KEUL 232332Z 2400/2424 32008KT P6SM SCT100 
     FM240500 29006KT P6SM SCT200
       
KEVV 232320Z 2400/2424 05006KT P6SM FEW090 
     FM240700 VRB03KT P6SM BKN024 
     FM241300 06006KT P6SM OVC014 
     FM241600 08008KT P6SM BKN016 
     FM242100 09009KT P6SM BKN040 
     FM242300 10009KT P6SM SCT120
       
KEVW 232320Z 2400/2424 28012KT P6SM VCSH BKN070 BKN130 
     FM240400 21005KT P6SM FEW070 FEW250 
     FM241600 31008KT P6SM SCT080 
     FM241800 30012G22KT P6SM VCSH SCT080
       
KEWN 232338Z 2400/2424 07006KT P6SM VCSH BKN035 
     TEMPO 2400/2402 2SM -TSRA BKN015CB 
     FM240200 08005KT P6SM VCSH SCT007 OVC012 
     FM240300 09005KT P6SM SCT004 OVC007 
     FM241400 13005KT P6SM VCSH OVC012 
     FM241700 17008KT 6SM -SHRA VCTS BKN015CB
       
KEWR 232322Z 2400/2506 04009KT P6SM FEW150 BKN250 
     FM240300 05006KT P6SM BKN100 
     FM241400 08005KT P6SM BKN100 
     FM241700 14008KT P6SM BKN100 
     FM250000 13005KT P6SM SCT250 
     FM250400 VRB03KT P6SM SCT250
       
KEYW 232325Z 2400/2424 11012G21KT P6SM SCT025 
     FM240400 12015KT P6SM VCSH SCT025